sensor_id;sensor_type;location;lat;lon;timestamp;P1;durP1;ratioP1;P2;durP2;ratioP2
65130;SDS011;51709;54.912;8.316;2023-06-22T00:05:06;15.57;;;12.50;;
65130;SDS011;51709;54.912;8.316;2023-06-22T00:10:27;23.08;;;12.18;;
65130;SDS011;51709;54.912;8.316;2023-06-22T00:15:48;20.13;;;13.75;;
65130;SDS011;51709;54.912;8.316;2023-06-22T00:21:09;17.63;;;12.65;;
65130;SDS011;51709;54.912;8.316;2023-06-22T00:26:29;23.75;;;12.45;;
65130;SDS011;51709;54.912;8.316;2023-06-22T00:31:50;15.77;;;11.93;;
65130;SDS011;51709;54.912;8.316;2023-06-22T00:37:11;24.17;;;10.77;;
65130;SDS011;51709;54.912;8.316;2023-06-22T00:42:32;16.17;;;11.70;;
65130;SDS011;51709;54.912;8.316;2023-06-22T00:47:53;23.23;;;13.35;;
65130;SDS011;51709;54.912;8.316;2023-06-22T00:53:15;25.45;;;12.52;;
65130;SDS011;51709;54.912;8.316;2023-06-22T00:58:38;25.27;;;12.63;;
65130;SDS011;51709;54.912;8.316;2023-06-22T01:04:02;19.08;;;12.75;;
65130;SDS011;51709;54.912;8.316;2023-06-22T01:09:26;24.35;;;12.95;;
65130;SDS011;51709;54.912;8.316;2023-06-22T01:21:02;17.45;;;11.65;;
65130;SDS011;51709;54.912;8.316;2023-06-22T01:26:33;20.40;;;11.63;;
65130;SDS011;51709;54.912;8.316;2023-06-22T01:31:55;27.08;;;12.98;;
65130;SDS011;51709;54.912;8.316;2023-06-22T01:37:17;19.98;;;12.45;;
65130;SDS011;51709;54.912;8.316;2023-06-22T01:42:38;26.23;;;14.32;;
65130;SDS011;51709;54.912;8.316;2023-06-22T01:48:00;25.42;;;14.88;;
65130;SDS011;51709;54.912;8.316;2023-06-22T01:53:22;26.38;;;15.40;;
65130;SDS011;51709;54.912;8.316;2023-06-22T01:58:55;18.27;;;13.63;;
65130;SDS011;51709;54.912;8.316;2023-06-22T02:04:27;22.77;;;15.75;;
65130;SDS011;51709;54.912;8.316;2023-06-22T02:09:55;19.83;;;13.95;;
65130;SDS011;51709;54.912;8.316;2023-06-22T02:15:18;19.98;;;12.45;;
65130;SDS011;51709;54.912;8.316;2023-06-22T02:20:39;21.73;;;15.48;;
65130;SDS011;51709;54.912;8.316;2023-06-22T02:26:02;25.88;;;17.50;;
65130;SDS011;51709;54.912;8.316;2023-06-22T02:31:24;23.70;;;14.63;;
65130;SDS011;51709;54.912;8.316;2023-06-22T02:36:51;20.33;;;14.90;;
65130;SDS011;51709;54.912;8.316;2023-06-22T02:42:12;23.77;;;15.40;;
65130;SDS011;51709;54.912;8.316;2023-06-22T02:47:32;19.08;;;14.30;;
65130;SDS011;51709;54.912;8.316;2023-06-22T02:52:53;27.17;;;16.85;;
65130;SDS011;51709;54.912;8.316;2023-06-22T02:58:15;27.52;;;15.40;;
65130;SDS011;51709;54.912;8.316;2023-06-22T03:03:36;30.02;;;17.75;;
65130;SDS011;51709;54.912;8.316;2023-06-22T03:08:58;24.83;;;17.00;;
65130;SDS011;51709;54.912;8.316;2023-06-22T03:14:22;24.35;;;16.75;;
65130;SDS011;51709;54.912;8.316;2023-06-22T03:19:44;25.33;;;16.70;;
65130;SDS011;51709;54.912;8.316;2023-06-22T03:25:06;32.42;;;19.45;;
65130;SDS011;51709;54.912;8.316;2023-06-22T03:30:37;20.45;;;16.77;;
65130;SDS011;51709;54.912;8.316;2023-06-22T03:35:59;26.48;;;18.55;;
65130;SDS011;51709;54.912;8.316;2023-06-22T03:41:19;27.15;;;17.80;;
65130;SDS011;51709;54.912;8.316;2023-06-22T03:46:43;37.33;;;21.50;;
65130;SDS011;51709;54.912;8.316;2023-06-22T03:52:04;29.80;;;22.17;;
65130;SDS011;51709;54.912;8.316;2023-06-22T03:57:25;27.58;;;18.50;;
65130;SDS011;51709;54.912;8.316;2023-06-22T04:02:46;29.70;;;20.27;;
65130;SDS011;51709;54.912;8.316;2023-06-22T04:08:07;32.22;;;19.73;;
65130;SDS011;51709;54.912;8.316;2023-06-22T04:13:28;28.23;;;18.48;;
65130;SDS011;51709;54.912;8.316;2023-06-22T04:18:48;23.13;;;17.88;;
65130;SDS011;51709;54.912;8.316;2023-06-22T04:24:09;27.55;;;19.05;;
65130;SDS011;51709;54.912;8.316;2023-06-22T04:29:29;28.20;;;21.45;;
65130;SDS011;51709;54.912;8.316;2023-06-22T04:34:50;28.40;;;18.90;;
65130;SDS011;51709;54.912;8.316;2023-06-22T04:40:12;28.00;;;19.25;;
65130;SDS011;51709;54.912;8.316;2023-06-22T04:45:35;33.42;;;22.35;;
65130;SDS011;51709;54.912;8.316;2023-06-22T04:51:01;34.33;;;20.40;;
65130;SDS011;51709;54.912;8.316;2023-06-22T04:56:24;31.27;;;19.25;;
65130;SDS011;51709;54.912;8.316;2023-06-22T05:01:48;28.42;;;18.23;;
65130;SDS011;51709;54.912;8.316;2023-06-22T05:07:09;27.95;;;18.88;;
65130;SDS011;51709;54.912;8.316;2023-06-22T05:12:30;25.95;;;18.75;;
65130;SDS011;51709;54.912;8.316;2023-06-22T05:17:51;28.45;;;18.02;;
65130;SDS011;51709;54.912;8.316;2023-06-22T05:23:12;36.45;;;19.52;;
65130;SDS011;51709;54.912;8.316;2023-06-22T05:28:33;32.75;;;20.85;;
65130;SDS011;51709;54.912;8.316;2023-06-22T05:33:54;28.17;;;17.70;;
65130;SDS011;51709;54.912;8.316;2023-06-22T05:39:15;34.75;;;20.65;;
65130;SDS011;51709;54.912;8.316;2023-06-22T05:44:36;31.15;;;19.90;;
65130;SDS011;51709;54.912;8.316;2023-06-22T05:49:59;24.85;;;19.60;;
65130;SDS011;51709;54.912;8.316;2023-06-22T05:55:19;29.15;;;19.35;;
65130;SDS011;51709;54.912;8.316;2023-06-22T06:00:40;27.20;;;17.90;;
65130;SDS011;51709;54.912;8.316;2023-06-22T06:06:01;25.25;;;17.50;;
65130;SDS011;51709;54.912;8.316;2023-06-22T06:11:23;27.52;;;17.52;;
65130;SDS011;51709;54.912;8.316;2023-06-22T06:16:43;22.42;;;17.10;;
65130;SDS011;51709;54.912;8.316;2023-06-22T06:22:04;21.30;;;16.05;;
65130;SDS011;51709;54.912;8.316;2023-06-22T06:27:24;22.25;;;13.98;;
65130;SDS011;51709;54.912;8.316;2023-06-22T06:32:50;17.10;;;12.02;;
65130;SDS011;51709;54.912;8.316;2023-06-22T06:38:11;16.75;;;11.88;;
65130;SDS011;51709;54.912;8.316;2023-06-22T06:43:31;16.52;;;13.02;;
65130;SDS011;51709;54.912;8.316;2023-06-22T06:48:52;13.50;;;9.57;;
65130;SDS011;51709;54.912;8.316;2023-06-22T06:54:12;12.23;;;8.82;;
65130;SDS011;51709;54.912;8.316;2023-06-22T06:59:33;6.95;;;5.88;;
65130;SDS011;51709;54.912;8.316;2023-06-22T07:04:53;10.25;;;6.28;;
65130;SDS011;51709;54.912;8.316;2023-06-22T07:10:19;8.48;;;5.15;;
65130;SDS011;51709;54.912;8.316;2023-06-22T07:15:39;13.75;;;6.43;;
65130;SDS011;51709;54.912;8.316;2023-06-22T07:21:00;7.18;;;3.95;;
65130;SDS011;51709;54.912;8.316;2023-06-22T07:26:21;10.60;;;6.18;;
65130;SDS011;51709;54.912;8.316;2023-06-22T07:31:41;9.00;;;6.32;;
65130;SDS011;51709;54.912;8.316;2023-06-22T07:37:02;13.90;;;7.35;;
65130;SDS011;51709;54.912;8.316;2023-06-22T07:42:24;5.88;;;5.22;;
65130;SDS011;51709;54.912;8.316;2023-06-22T07:47:46;9.02;;;5.93;;
65130;SDS011;51709;54.912;8.316;2023-06-22T07:53:06;9.60;;;8.57;;
65130;SDS011;51709;54.912;8.316;2023-06-22T07:58:27;9.13;;;6.13;;
65130;SDS011;51709;54.912;8.316;2023-06-22T08:03:48;6.32;;;4.35;;
65130;SDS011;51709;54.912;8.316;2023-06-22T08:09:09;5.25;;;4.13;;
65130;SDS011;51709;54.912;8.316;2023-06-22T08:14:29;5.75;;;5.15;;
65130;SDS011;51709;54.912;8.316;2023-06-22T08:19:50;5.32;;;4.55;;
65130;SDS011;51709;54.912;8.316;2023-06-22T08:25:11;6.00;;;5.35;;
65130;SDS011;51709;54.912;8.316;2023-06-22T08:30:31;8.07;;;5.32;;
65130;SDS011;51709;54.912;8.316;2023-06-22T08:35:52;5.28;;;4.72;;
65130;SDS011;51709;54.912;8.316;2023-06-22T08:41:13;7.60;;;6.10;;
65130;SDS011;51709;54.912;8.316;2023-06-22T08:46:34;7.55;;;6.05;;
65130;SDS011;51709;54.912;8.316;2023-06-22T08:51:54;6.68;;;5.32;;
65130;SDS011;51709;54.912;8.316;2023-06-22T08:57:17;7.75;;;5.65;;
65130;SDS011;51709;54.912;8.316;2023-06-22T09:02:37;5.50;;;4.03;;
65130;SDS011;51709;54.912;8.316;2023-06-22T09:07:58;7.00;;;5.05;;
65130;SDS011;51709;54.912;8.316;2023-06-22T09:13:19;8.02;;;5.68;;
65130;SDS011;51709;54.912;8.316;2023-06-22T09:18:39;7.03;;;4.82;;
65130;SDS011;51709;54.912;8.316;2023-06-22T09:24:00;5.72;;;3.92;;
65130;SDS011;51709;54.912;8.316;2023-06-22T09:29:20;9.07;;;4.10;;
65130;SDS011;51709;54.912;8.316;2023-06-22T09:34:41;6.13;;;4.78;;
65130;SDS011;51709;54.912;8.316;2023-06-22T09:40:02;7.80;;;3.75;;
65130;SDS011;51709;54.912;8.316;2023-06-22T09:45:28;6.15;;;3.42;;
65130;SDS011;51709;54.912;8.316;2023-06-22T09:50:49;3.53;;;3.22;;
65130;SDS011;51709;54.912;8.316;2023-06-22T09:56:09;7.88;;;3.88;;
65130;SDS011;51709;54.912;8.316;2023-06-22T10:01:34;4.35;;;3.95;;
65130;SDS011;51709;54.912;8.316;2023-06-22T10:06:55;3.55;;;3.03;;
65130;SDS011;51709;54.912;8.316;2023-06-22T10:12:15;4.78;;;3.63;;
65130;SDS011;51709;54.912;8.316;2023-06-22T10:17:36;4.10;;;3.28;;
65130;SDS011;51709;54.912;8.316;2023-06-22T10:22:57;4.15;;;3.72;;
65130;SDS011;51709;54.912;8.316;2023-06-22T10:28:19;3.88;;;3.15;;
65130;SDS011;51709;54.912;8.316;2023-06-22T10:33:40;10.15;;;4.00;;
65130;SDS011;51709;54.912;8.316;2023-06-22T10:39:01;4.00;;;2.90;;
65130;SDS011;51709;54.912;8.316;2023-06-22T10:44:23;4.90;;;2.80;;
65130;SDS011;51709;54.912;8.316;2023-06-22T10:49:43;5.50;;;3.72;;
65130;SDS011;51709;54.912;8.316;2023-06-22T10:55:04;4.45;;;3.42;;
65130;SDS011;51709;54.912;8.316;2023-06-22T11:00:24;3.15;;;2.95;;
65130;SDS011;51709;54.912;8.316;2023-06-22T11:05:45;6.45;;;2.95;;
65130;SDS011;51709;54.912;8.316;2023-06-22T11:16:28;3.55;;;2.63;;
65130;SDS011;51709;54.912;8.316;2023-06-22T11:21:49;8.13;;;2.70;;
65130;SDS011;51709;54.912;8.316;2023-06-22T11:27:09;4.78;;;2.53;;
65130;SDS011;51709;54.912;8.316;2023-06-22T11:32:29;5.78;;;2.92;;
65130;SDS011;51709;54.912;8.316;2023-06-22T11:37:50;2.83;;;2.63;;
65130;SDS011;51709;54.912;8.316;2023-06-22T11:43:11;3.40;;;2.80;;
65130;SDS011;51709;54.912;8.316;2023-06-22T11:48:31;3.05;;;2.75;;
65130;SDS011;51709;54.912;8.316;2023-06-22T11:53:53;3.60;;;2.45;;
65130;SDS011;51709;54.912;8.316;2023-06-22T11:59:14;2.72;;;2.45;;
65130;SDS011;51709;54.912;8.316;2023-06-22T12:04:34;3.17;;;2.20;;
65130;SDS011;51709;54.912;8.316;2023-06-22T12:09:55;2.85;;;2.55;;
65130;SDS011;51709;54.912;8.316;2023-06-22T12:15:16;3.88;;;2.50;;
65130;SDS011;51709;54.912;8.316;2023-06-22T12:20:37;4.25;;;2.78;;
65130;SDS011;51709;54.912;8.316;2023-06-22T12:25:57;6.63;;;2.22;;
65130;SDS011;51709;54.912;8.316;2023-06-22T12:31:19;2.45;;;2.25;;
65130;SDS011;51709;54.912;8.316;2023-06-22T12:36:39;3.25;;;2.70;;
65130;SDS011;51709;54.912;8.316;2023-06-22T12:42:00;3.78;;;2.92;;
65130;SDS011;51709;54.912;8.316;2023-06-22T12:47:21;4.65;;;2.85;;
65130;SDS011;51709;54.912;8.316;2023-06-22T12:52:42;3.92;;;3.40;;
65130;SDS011;51709;54.912;8.316;2023-06-22T12:58:03;3.35;;;3.05;;
65130;SDS011;51709;54.912;8.316;2023-06-22T13:03:23;5.88;;;3.03;;
65130;SDS011;51709;54.912;8.316;2023-06-22T13:08:46;2.20;;;2.10;;
65130;SDS011;51709;54.912;8.316;2023-06-22T13:14:09;5.57;;;2.80;;
65130;SDS011;51709;54.912;8.316;2023-06-22T13:19:31;3.30;;;3.00;;
65130;SDS011;51709;54.912;8.316;2023-06-22T13:24:52;3.05;;;2.75;;
65130;SDS011;51709;54.912;8.316;2023-06-22T13:30:16;2.38;;;2.17;;
65130;SDS011;51709;54.912;8.316;2023-06-22T13:35:37;2.83;;;2.63;;
65130;SDS011;51709;54.912;8.316;2023-06-22T13:40:58;2.72;;;2.55;;
65130;SDS011;51709;54.912;8.316;2023-06-22T13:46:19;3.63;;;2.58;;
65130;SDS011;51709;54.912;8.316;2023-06-22T13:51:40;3.78;;;2.45;;
65130;SDS011;51709;54.912;8.316;2023-06-22T13:57:00;3.00;;;2.58;;
65130;SDS011;51709;54.912;8.316;2023-06-22T14:02:21;3.03;;;2.72;;
65130;SDS011;51709;54.912;8.316;2023-06-22T14:07:41;3.50;;;3.20;;
65130;SDS011;51709;54.912;8.316;2023-06-22T14:13:02;3.85;;;3.55;;
65130;SDS011;51709;54.912;8.316;2023-06-22T14:18:22;4.00;;;3.60;;
65130;SDS011;51709;54.912;8.316;2023-06-22T14:23:42;4.38;;;3.40;;
65130;SDS011;51709;54.912;8.316;2023-06-22T14:29:09;3.67;;;3.17;;
65130;SDS011;51709;54.912;8.316;2023-06-22T14:34:30;6.18;;;3.60;;
65130;SDS011;51709;54.912;8.316;2023-06-22T14:39:50;4.50;;;3.78;;
65130;SDS011;51709;54.912;8.316;2023-06-22T14:45:10;4.45;;;4.07;;
65130;SDS011;51709;54.912;8.316;2023-06-22T14:50:31;4.30;;;3.90;;
65130;SDS011;51709;54.912;8.316;2023-06-22T14:55:51;4.35;;;3.63;;
65130;SDS011;51709;54.912;8.316;2023-06-22T15:01:14;5.63;;;4.43;;
65130;SDS011;51709;54.912;8.316;2023-06-22T15:06:36;4.43;;;4.05;;
65130;SDS011;51709;54.912;8.316;2023-06-22T15:11:57;5.18;;;4.40;;
65130;SDS011;51709;54.912;8.316;2023-06-22T15:17:18;4.65;;;4.35;;
65130;SDS011;51709;54.912;8.316;2023-06-22T15:22:38;5.85;;;5.35;;
65130;SDS011;51709;54.912;8.316;2023-06-22T15:27:59;6.30;;;5.80;;
65130;SDS011;51709;54.912;8.316;2023-06-22T15:33:19;6.60;;;6.10;;
65130;SDS011;51709;54.912;8.316;2023-06-22T15:38:40;6.72;;;6.15;;
65130;SDS011;51709;54.912;8.316;2023-06-22T15:44:01;5.88;;;5.38;;
65130;SDS011;51709;54.912;8.316;2023-06-22T15:49:21;5.35;;;5.05;;
65130;SDS011;51709;54.912;8.316;2023-06-22T15:54:42;12.18;;;5.43;;
65130;SDS011;51709;54.912;8.316;2023-06-22T16:00:02;6.38;;;5.40;;
65130;SDS011;51709;54.912;8.316;2023-06-22T16:05:26;5.43;;;4.78;;
65130;SDS011;51709;54.912;8.316;2023-06-22T16:10:47;11.07;;;5.32;;
65130;SDS011;51709;54.912;8.316;2023-06-22T16:16:07;6.00;;;4.40;;
65130;SDS011;51709;54.912;8.316;2023-06-22T16:21:28;5.93;;;4.72;;
65130;SDS011;51709;54.912;8.316;2023-06-22T16:26:49;6.50;;;4.95;;
65130;SDS011;51709;54.912;8.316;2023-06-22T16:32:10;8.02;;;4.80;;
65130;SDS011;51709;54.912;8.316;2023-06-22T16:37:31;6.75;;;4.75;;
65130;SDS011;51709;54.912;8.316;2023-06-22T16:42:51;7.00;;;4.68;;
65130;SDS011;51709;54.912;8.316;2023-06-22T16:48:15;4.68;;;4.15;;
65130;SDS011;51709;54.912;8.316;2023-06-22T16:53:35;6.32;;;4.75;;
65130;SDS011;51709;54.912;8.316;2023-06-22T16:58:56;5.20;;;4.50;;
65130;SDS011;51709;54.912;8.316;2023-06-22T17:04:21;7.45;;;4.65;;
65130;SDS011;51709;54.912;8.316;2023-06-22T17:09:49;6.95;;;4.95;;
65130;SDS011;51709;54.912;8.316;2023-06-22T17:15:10;4.97;;;4.25;;
65130;SDS011;51709;54.912;8.316;2023-06-22T17:20:31;8.38;;;4.63;;
65130;SDS011;51709;54.912;8.316;2023-06-22T17:25:53;9.20;;;5.13;;
65130;SDS011;51709;54.912;8.316;2023-06-22T17:31:15;6.95;;;4.93;;
65130;SDS011;51709;54.912;8.316;2023-06-22T17:36:39;11.45;;;4.75;;
65130;SDS011;51709;54.912;8.316;2023-06-22T17:42:04;6.28;;;4.53;;
65130;SDS011;51709;54.912;8.316;2023-06-22T17:47:26;5.93;;;4.40;;
65130;SDS011;51709;54.912;8.316;2023-06-22T17:52:50;9.70;;;4.90;;
65130;SDS011;51709;54.912;8.316;2023-06-22T17:58:15;10.07;;;4.85;;
65130;SDS011;51709;54.912;8.316;2023-06-22T18:03:36;8.63;;;4.65;;
65130;SDS011;51709;54.912;8.316;2023-06-22T18:08:58;4.95;;;4.45;;
65130;SDS011;51709;54.912;8.316;2023-06-22T18:14:22;8.48;;;5.22;;
65130;SDS011;51709;54.912;8.316;2023-06-22T18:19:43;16.63;;;5.65;;
65130;SDS011;51709;54.912;8.316;2023-06-22T18:25:07;10.50;;;6.18;;
65130;SDS011;51709;54.912;8.316;2023-06-22T18:30:28;6.20;;;4.30;;
65130;SDS011;51709;54.912;8.316;2023-06-22T18:35:50;6.95;;;4.40;;
65130;SDS011;51709;54.912;8.316;2023-06-22T18:41:19;7.80;;;4.45;;
65130;SDS011;51709;54.912;8.316;2023-06-22T18:46:41;9.38;;;3.95;;
65130;SDS011;51709;54.912;8.316;2023-06-22T18:57:29;10.10;;;3.88;;
65130;SDS011;51709;54.912;8.316;2023-06-22T19:08:12;7.07;;;3.28;;
65130;SDS011;51709;54.912;8.316;2023-06-22T19:13:44;6.10;;;4.15;;
65130;SDS011;51709;54.912;8.316;2023-06-22T19:19:12;7.93;;;3.78;;
65130;SDS011;51709;54.912;8.316;2023-06-22T19:24:47;7.25;;;4.40;;
65130;SDS011;51709;54.912;8.316;2023-06-22T19:30:11;4.53;;;3.35;;
65130;SDS011;51709;54.912;8.316;2023-06-22T19:35:36;5.45;;;3.75;;
65130;SDS011;51709;54.912;8.316;2023-06-22T19:40:57;6.22;;;3.50;;
65130;SDS011;51709;54.912;8.316;2023-06-22T19:46:29;8.05;;;4.03;;
65130;SDS011;51709;54.912;8.316;2023-06-22T19:51:51;12.45;;;4.32;;
65130;SDS011;51709;54.912;8.316;2023-06-22T19:57:11;11.05;;;4.13;;
65130;SDS011;51709;54.912;8.316;2023-06-22T20:02:32;7.65;;;4.65;;
65130;SDS011;51709;54.912;8.316;2023-06-22T20:07:53;6.45;;;4.13;;
65130;SDS011;51709;54.912;8.316;2023-06-22T20:13:15;10.20;;;4.13;;
65130;SDS011;51709;54.912;8.316;2023-06-22T20:18:39;5.47;;;4.00;;
65130;SDS011;51709;54.912;8.316;2023-06-22T20:24:03;14.30;;;3.60;;
65130;SDS011;51709;54.912;8.316;2023-06-22T20:29:32;10.45;;;4.45;;
65130;SDS011;51709;54.912;8.316;2023-06-22T20:34:58;13.68;;;4.13;;
65130;SDS011;51709;54.912;8.316;2023-06-22T20:40:25;13.20;;;4.05;;
65130;SDS011;51709;54.912;8.316;2023-06-22T20:45:49;12.95;;;4.03;;
65130;SDS011;51709;54.912;8.316;2023-06-22T20:51:16;6.95;;;4.20;;
65130;SDS011;51709;54.912;8.316;2023-06-22T20:56:37;13.95;;;4.78;;
65130;SDS011;51709;54.912;8.316;2023-06-22T21:01:58;5.72;;;4.30;;
65130;SDS011;51709;54.912;8.316;2023-06-22T21:07:18;5.13;;;3.25;;
65130;SDS011;51709;54.912;8.316;2023-06-22T21:12:39;7.10;;;4.07;;
65130;SDS011;51709;54.912;8.316;2023-06-22T21:18:00;3.70;;;3.25;;
65130;SDS011;51709;54.912;8.316;2023-06-22T21:23:21;7.47;;;3.60;;
65130;SDS011;51709;54.912;8.316;2023-06-22T21:28:41;5.40;;;3.85;;
65130;SDS011;51709;54.912;8.316;2023-06-22T21:34:02;11.93;;;3.72;;
65130;SDS011;51709;54.912;8.316;2023-06-22T21:39:22;9.20;;;3.25;;
65130;SDS011;51709;54.912;8.316;2023-06-22T21:44:43;9.65;;;3.20;;
65130;SDS011;51709;54.912;8.316;2023-06-22T21:50:07;7.35;;;3.20;;
65130;SDS011;51709;54.912;8.316;2023-06-22T21:55:27;11.75;;;3.25;;
65130;SDS011;51709;54.912;8.316;2023-06-22T22:00:48;4.45;;;2.83;;
65130;SDS011;51709;54.912;8.316;2023-06-22T22:06:09;7.60;;;3.75;;
65130;SDS011;51709;54.912;8.316;2023-06-22T22:11:29;10.13;;;3.67;;
65130;SDS011;51709;54.912;8.316;2023-06-22T22:16:50;9.68;;;3.28;;
65130;SDS011;51709;54.912;8.316;2023-06-22T22:22:11;6.50;;;3.20;;
65130;SDS011;51709;54.912;8.316;2023-06-22T22:27:32;3.05;;;2.67;;
65130;SDS011;51709;54.912;8.316;2023-06-22T22:32:52;7.25;;;3.65;;
65130;SDS011;51709;54.912;8.316;2023-06-22T22:38:13;8.43;;;3.67;;
65130;SDS011;51709;54.912;8.316;2023-06-22T22:43:33;4.45;;;3.22;;
65130;SDS011;51709;54.912;8.316;2023-06-22T22:48:54;6.13;;;4.80;;
65130;SDS011;51709;54.912;8.316;2023-06-22T22:54:15;4.50;;;3.80;;
65130;SDS011;51709;54.912;8.316;2023-06-22T22:59:35;5.38;;;3.58;;
65130;SDS011;51709;54.912;8.316;2023-06-22T23:04:57;8.80;;;3.50;;
65130;SDS011;51709;54.912;8.316;2023-06-22T23:10:18;4.03;;;3.63;;
65130;SDS011;51709;54.912;8.316;2023-06-22T23:15:39;6.95;;;3.83;;
65130;SDS011;51709;54.912;8.316;2023-06-22T23:21:00;5.28;;;3.13;;
65130;SDS011;51709;54.912;8.316;2023-06-22T23:26:20;3.72;;;2.85;;
65130;SDS011;51709;54.912;8.316;2023-06-22T23:31:41;7.75;;;3.50;;
65130;SDS011;51709;54.912;8.316;2023-06-22T23:37:03;4.75;;;3.67;;
65130;SDS011;51709;54.912;8.316;2023-06-22T23:42:23;6.82;;;3.30;;
65130;SDS011;51709;54.912;8.316;2023-06-22T23:47:44;5.57;;;3.45;;
65130;SDS011;51709;54.912;8.316;2023-06-22T23:53:06;7.30;;;3.38;;
65130;SDS011;51709;54.912;8.316;2023-06-22T23:58:28;6.20;;;3.08;;
